Time,TemperatureF,DewpointF,PressureIn,WindDirection,WindDirectionDegrees,WindSpeedMPH,WindSpeedGustMPH,Humidity,HourlyPrecipIn,Conditions,Clouds,dailyrainin,SoftwareType,DateUTC
2014-01-25 00:01:00,13.4,0.2,29.49,WSW,249,15.0,15.0,55,0.00,,,0.00,Wunderground v.1.15,2014-01-25 05:01:00,
2014-01-25 00:06:00,13.4,0.6,29.48,West,277,15.0,15.0,56,0.00,,,0.00,Wunderground v.1.15,2014-01-25 05:06:00,
2014-01-25 00:11:00,13.5,0.3,29.48,WSW,257,16.0,17.0,55,0.00,,,0.00,Wunderground v.1.15,2014-01-25 05:11:00,
2014-01-25 00:16:00,13.5,0.3,29.48,West,268,15.0,19.0,55,0.00,,,0.00,Wunderground v.1.15,2014-01-25 05:16:00,
2014-01-25 00:21:00,13.5,0.3,29.47,WNW,282,16.0,19.0,55,0.00,,,0.00,Wunderground v.1.15,2014-01-25 05:21:00,
2014-01-25 00:26:00,13.4,0.6,29.46,West,265,16.0,18.0,56,0.00,,,0.00,Wunderground v.1.15,2014-01-25 05:26:00,
2014-01-25 00:31:00,13.4,1.0,29.46,WSW,246,15.0,18.0,57,0.00,,,0.00,Wunderground v.1.15,2014-01-25 05:31:00,
2014-01-25 00:36:00,13.4,0.6,29.46,WSW,252,16.0,16.0,56,0.00,,,0.00,Wunderground v.1.15,2014-01-25 05:36:00,
2014-01-25 00:41:00,13.3,0.9,29.46,West,260,17.0,22.0,57,0.00,,,0.00,Wunderground v.1.15,2014-01-25 05:41:00,
2014-01-25 00:46:00,13.4,0.6,29.46,West,263,17.0,17.0,56,0.00,,,0.00,Wunderground v.1.15,2014-01-25 05:46:00,
2014-01-25 00:51:00,13.3,0.9,29.45,West,259,16.0,18.0,57,0.00,,,0.00,Wunderground v.1.15,2014-01-25 05:51:00,
2014-01-25 00:56:00,13.2,1.2,29.45,WSW,252,16.0,16.0,58,0.00,,,0.00,Wunderground v.1.15,2014-01-25 05:56:00,
2014-01-25 01:01:00,13.3,1.3,29.45,WNW,295,15.0,16.0,58,0.00,,,0.00,Wunderground v.1.15,2014-01-25 06:01:00,
2014-01-25 01:06:00,13.2,1.2,29.44,West,261,14.0,14.0,58,0.00,,,0.00,Wunderground v.1.15,2014-01-25 06:06:00,
2014-01-25 01:11:00,13.2,1.2,29.44,WSW,245,16.0,16.0,58,0.00,,,0.00,Wunderground v.1.15,2014-01-25 06:11:00,
2014-01-25 01:16:00,13.2,1.2,29.43,West,265,16.0,16.0,58,0.00,,,0.00,Wunderground v.1.15,2014-01-25 06:16:00,
2014-01-25 01:21:00,13.3,1.3,29.43,West,261,16.0,16.0,58,0.00,,,0.00,Wunderground v.1.15,2014-01-25 06:21:00,
2014-01-25 01:31:00,13.5,0.7,29.42,West,273,18.0,19.0,56,0.00,,,0.00,Wunderground v.1.15,2014-01-25 06:31:00,
2014-01-25 01:36:00,13.6,1.2,29.42,WNW,286,16.0,16.0,57,0.00,,,0.00,Wunderground v.1.15,2014-01-25 06:36:00,
2014-01-25 01:41:00,13.7,0.9,29.42,West,260,16.0,16.0,56,0.00,,,0.00,Wunderground v.1.15,2014-01-25 06:41:00,
2014-01-25 01:46:00,13.8,1.0,29.42,WSW,257,16.0,18.0,56,0.00,,,0.00,Wunderground v.1.15,2014-01-25 06:46:00,
2014-01-25 01:51:00,13.9,0.7,29.41,WSW,257,16.0,18.0,55,0.00,,,0.00,Wunderground v.1.15,2014-01-25 06:51:00,
2014-01-25 01:56:00,13.9,1.1,29.42,WSW,258,16.0,23.0,56,0.00,,,0.00,Wunderground v.1.15,2014-01-25 06:56:00,
2014-01-25 02:01:00,14.0,0.8,29.42,West,265,15.0,23.0,55,0.00,,,0.00,Wunderground v.1.15,2014-01-25 07:01:00,
2014-01-25 02:06:00,14.1,0.9,29.41,WSW,253,15.0,18.0,55,0.00,,,0.00,Wunderground v.1.15,2014-01-25 07:06:00,
2014-01-25 02:11:00,14.1,0.9,29.41,West,268,15.0,18.0,55,0.00,,,0.00,Wunderground v.1.15,2014-01-25 07:11:00,
2014-01-25 02:16:00,14.1,0.9,29.41,WSW,257,14.0,17.0,55,0.00,,,0.00,Wunderground v.1.15,2014-01-25 07:16:00,
2014-01-25 02:21:00,14.3,1.1,29.40,West,263,15.0,17.0,55,0.00,,,0.00,Wunderground v.1.15,2014-01-25 07:21:00,
2014-01-25 02:26:00,14.3,1.1,29.40,WSW,257,16.0,16.0,55,0.00,,,0.00,Wunderground v.1.15,2014-01-25 07:26:00,
2014-01-25 02:31:00,14.3,1.1,29.40,West,263,15.0,16.0,55,0.00,,,0.00,Wunderground v.1.15,2014-01-25 07:31:00,
2014-01-25 02:36:00,14.3,1.1,29.40,West,267,14.0,18.0,55,0.00,,,0.00,Wunderground v.1.15,2014-01-25 07:36:00,
2014-01-25 02:41:00,14.4,1.2,29.39,West,263,15.0,21.0,55,0.00,,,0.00,Wunderground v.1.15,2014-01-25 07:41:00,
2014-01-25 02:46:00,14.5,0.9,29.39,WNW,284,15.0,15.0,54,0.00,,,0.00,Wunderground v.1.15,2014-01-25 07:46:00,
2014-01-25 02:51:00,14.5,0.9,29.39,West,268,13.0,17.0,54,0.00,,,0.00,Wunderground v.1.15,2014-01-25 07:51:00,
2014-01-25 02:56:00,14.6,0.9,29.38,WNW,284,14.0,18.0,54,0.00,,,0.00,Wunderground v.1.15,2014-01-25 07:56:00,
2014-01-25 03:01:00,14.7,0.6,29.38,West,264,14.0,20.0,53,0.00,,,0.00,Wunderground v.1.15,2014-01-25 08:01:00,
2014-01-25 03:06:00,14.7,1.0,29.38,West,269,14.0,14.0,54,0.00,,,0.00,Wunderground v.1.15,2014-01-25 08:06:00,
2014-01-25 03:11:00,14.9,0.8,29.37,West,277,15.0,17.0,53,0.00,,,0.00,Wunderground v.1.15,2014-01-25 08:11:00,
2014-01-25 03:16:00,14.9,0.8,29.36,West,266,16.0,16.0,53,0.00,,,0.00,Wunderground v.1.15,2014-01-25 08:16:00,
2014-01-25 03:21:00,14.9,1.2,29.36,West,262,16.0,16.0,54,0.00,,,0.00,Wunderground v.1.15,2014-01-25 08:21:00,
2014-01-25 03:26:00,14.9,0.8,29.36,West,261,15.0,21.0,53,0.00,,,0.00,Wunderground v.1.15,2014-01-25 08:26:00,
2014-01-25 03:31:00,14.9,1.2,29.35,West,271,14.0,21.0,54,0.00,,,0.00,Wunderground v.1.15,2014-01-25 08:31:00,
2014-01-25 03:36:00,14.9,0.8,29.34,West,266,14.0,20.0,53,0.00,,,0.00,Wunderground v.1.15,2014-01-25 08:36:00,
2014-01-25 03:41:00,15.0,1.3,29.34,WSW,258,15.0,20.0,54,0.00,,,0.00,Wunderground v.1.15,2014-01-25 08:41:00,
2014-01-25 03:46:00,14.9,1.2,29.34,WNW,291,15.0,15.0,54,0.00,,,0.00,Wunderground v.1.15,2014-01-25 08:46:00,
2014-01-25 03:51:00,15.0,0.9,29.33,West,273,12.0,18.0,53,0.00,,,0.00,Wunderground v.1.15,2014-01-25 08:51:00,
2014-01-25 03:56:00,15.0,0.9,29.33,West,263,13.0,13.0,53,0.00,,,0.00,Wunderground v.1.15,2014-01-25 08:56:00,
2014-01-25 04:01:00,15.0,1.3,29.33,West,261,13.0,13.0,54,0.00,,,0.00,Wunderground v.1.15,2014-01-25 09:01:00,
2014-01-25 04:06:00,15.2,0.7,29.33,WSW,250,12.0,12.0,52,0.00,,,0.00,Wunderground v.1.15,2014-01-25 09:06:00,
2014-01-25 04:11:00,15.2,0.7,29.33,WSW,252,11.0,13.0,52,0.00,,,0.00,Wunderground v.1.15,2014-01-25 09:11:00,
2014-01-25 04:16:00,15.2,1.1,29.33,West,269,11.0,13.0,53,0.00,,,0.00,Wunderground v.1.15,2014-01-25 09:16:00,
2014-01-25 04:21:00,15.3,1.2,29.32,WSW,257,12.0,13.0,53,0.00,,,0.00,Wunderground v.1.15,2014-01-25 09:21:00,
2014-01-25 04:26:00,15.3,1.2,29.32,West,265,10.0,18.0,53,0.00,,,0.00,Wunderground v.1.15,2014-01-25 09:26:00,
2014-01-25 04:31:00,15.3,1.2,29.32,WNW,282,12.0,18.0,53,0.00,,,0.00,Wunderground v.1.15,2014-01-25 09:31:00,
2014-01-25 04:41:00,15.3,1.2,29.31,West,262,13.0,14.0,53,0.00,,,0.00,Wunderground v.1.15,2014-01-25 09:41:00,
2014-01-25 04:46:00,15.2,1.9,29.31,West,276,13.0,13.0,55,0.00,,,0.00,Wunderground v.1.15,2014-01-25 09:46:00,
2014-01-25 04:51:00,15.2,1.5,29.31,WNW,283,13.0,13.0,54,0.00,,,0.00,Wunderground v.1.15,2014-01-25 09:51:00,
2014-01-25 04:56:00,15.2,1.9,29.30,WSW,249,13.0,16.0,55,0.00,,,0.00,Wunderground v.1.15,2014-01-25 09:56:00,
2014-01-25 05:01:00,15.2,2.7,29.30,West,273,14.0,16.0,57,0.00,,,0.00,Wunderground v.1.15,2014-01-25 10:01:00,
2014-01-25 05:06:00,15.2,2.7,29.30,West,269,14.0,14.0,57,0.00,,,0.00,Wunderground v.1.15,2014-01-25 10:06:00,
2014-01-25 05:11:00,15.2,2.7,29.30,West,271,13.0,14.0,57,0.00,,,0.00,Wunderground v.1.15,2014-01-25 10:11:00,
2014-01-25 05:16:00,15.1,3.3,29.30,West,275,13.0,13.0,59,0.00,,,0.00,Wunderground v.1.15,2014-01-25 10:16:00,
2014-01-25 05:21:00,15.1,3.7,29.29,West,269,13.0,14.0,60,0.00,,,0.00,Wunderground v.1.15,2014-01-25 10:21:00,
2014-01-25 05:26:00,15.0,4.3,29.29,WSW,243,14.0,19.0,62,0.00,,,0.00,Wunderground v.1.15,2014-01-25 10:26:00,
2014-01-25 05:31:00,14.7,5.4,29.28,WNW,282,15.0,19.0,66,0.00,,,0.00,Wunderground v.1.15,2014-01-25 10:31:00,
2014-01-25 05:36:00,14.6,6.0,29.28,West,281,14.0,19.0,68,0.00,,,0.00,Wunderground v.1.15,2014-01-25 10:36:00,
2014-01-25 05:41:00,14.6,6.3,29.28,West,279,14.0,19.0,69,0.00,,,0.00,Wunderground v.1.15,2014-01-25 10:41:00,
2014-01-25 05:46:00,14.5,6.5,29.27,WSW,252,15.0,27.0,70,0.00,,,0.00,Wunderground v.1.15,2014-01-25 10:46:00,
2014-01-25 05:51:00,14.5,6.8,29.27,West,265,16.0,27.0,71,0.00,,,0.00,Wunderground v.1.15,2014-01-25 10:51:00,
2014-01-25 05:56:00,14.4,6.7,29.27,West,273,15.0,15.0,71,0.00,,,0.00,Wunderground v.1.15,2014-01-25 10:56:00,
2014-01-25 06:01:00,14.4,7.0,29.26,WSW,258,12.0,16.0,72,0.00,,,0.00,Wunderground v.1.15,2014-01-25 11:01:00,
2014-01-25 06:06:00,14.2,7.1,29.27,West,275,12.0,15.0,73,0.00,,,0.00,Wunderground v.1.15,2014-01-25 11:06:00,
2014-01-25 06:11:00,14.3,7.2,29.26,West,261,14.0,16.0,73,0.00,,,0.00,Wunderground v.1.15,2014-01-25 11:11:00,
2014-01-25 06:16:00,14.1,7.3,29.26,West,260,15.0,15.0,74,0.00,,,0.00,Wunderground v.1.15,2014-01-25 11:16:00,
2014-01-25 06:21:00,14.1,7.6,29.26,WNW,300,13.0,15.0,75,0.00,,,0.00,Wunderground v.1.15,2014-01-25 11:21:00,
2014-01-25 06:26:00,14.0,8.1,29.26,WSW,239,13.0,13.0,77,0.00,,,0.00,Wunderground v.1.15,2014-01-25 11:26:00,
2014-01-25 06:31:00,13.9,8.3,29.26,West,262,14.0,14.0,78,0.00,,,0.00,Wunderground v.1.15,2014-01-25 11:31:00,
2014-01-25 06:36:00,13.9,8.3,29.26,West,273,12.0,13.0,78,0.00,,,0.00,Wunderground v.1.15,2014-01-25 11:36:00,
2014-01-25 06:41:00,14.0,8.1,29.26,WSW,252,11.0,13.0,77,0.00,,,0.00,Wunderground v.1.15,2014-01-25 11:41:00,
2014-01-25 06:46:00,14.1,8.2,29.25,West,272,13.0,13.0,77,0.00,,,0.00,Wunderground v.1.15,2014-01-25 11:46:00,
2014-01-25 06:51:00,14.2,8.3,29.25,WSW,243,14.0,19.0,77,0.00,,,0.00,Wunderground v.1.15,2014-01-25 11:51:00,
2014-01-25 06:56:00,14.2,8.3,29.25,West,265,15.0,15.0,77,0.00,,,0.00,Wunderground v.1.15,2014-01-25 11:56:00,
2014-01-25 07:01:00,14.3,8.4,29.25,West,271,15.0,15.0,77,0.00,,,0.00,Wunderground v.1.15,2014-01-25 12:01:00,
2014-01-25 07:06:00,14.4,8.5,29.24,West,271,13.0,13.0,77,0.00,,,0.00,Wunderground v.1.15,2014-01-25 12:06:00,
2014-01-25 07:11:00,14.5,8.0,29.24,West,267,12.0,17.0,75,0.00,,,0.00,Wunderground v.1.15,2014-01-25 12:11:00,
2014-01-25 07:21:00,14.8,7.4,29.24,West,264,13.0,14.0,72,0.00,,,0.00,Wunderground v.1.15,2014-01-25 12:21:00,
2014-01-25 07:26:00,14.9,7.2,29.23,WNW,292,13.0,13.0,71,0.00,,,0.00,Wunderground v.1.15,2014-01-25 12:26:00,
2014-01-25 07:31:00,15.0,7.0,29.22,WSW,253,12.0,14.0,70,0.00,,,0.00,Wunderground v.1.15,2014-01-25 12:31:00,
2014-01-25 07:36:00,15.1,6.8,29.22,West,272,13.0,13.0,69,0.00,,,0.00,Wunderground v.1.15,2014-01-25 12:36:00,
2014-01-25 07:41:00,15.2,6.5,29.22,West,272,11.0,13.0,68,0.00,,,0.00,Wunderground v.1.15,2014-01-25 12:41:00,
2014-01-25 07:46:00,15.4,6.7,29.22,West,271,10.0,10.0,68,0.00,,,0.00,Wunderground v.1.15,2014-01-25 12:46:00,
2014-01-25 07:56:00,15.4,6.1,29.22,WSW,255,13.0,13.0,66,0.00,,,0.00,Wunderground v.1.15,2014-01-25 12:56:00,
2014-01-25 08:01:00,15.4,6.1,29.21,West,273,15.0,15.0,66,0.00,,,0.00,Wunderground v.1.15,2014-01-25 13:01:00,
2014-01-25 08:06:00,15.6,5.9,29.21,West,267,14.0,19.0,65,0.00,,,0.00,Wunderground v.1.15,2014-01-25 13:06:00,
2014-01-25 08:11:00,15.7,5.7,29.21,WNW,284,14.0,19.0,64,0.00,,,0.00,Wunderground v.1.15,2014-01-25 13:11:00,
2014-01-25 08:16:00,15.7,5.7,29.21,SW,234,15.0,17.0,64,0.00,,,0.00,Wunderground v.1.15,2014-01-25 13:16:00,
2014-01-25 08:21:00,15.8,5.4,29.20,SW,232,15.0,17.0,63,0.00,,,0.00,Wunderground v.1.15,2014-01-25 13:21:00,
2014-01-25 08:26:00,15.9,5.5,29.20,WNW,292,15.0,15.0,63,0.00,,,0.00,Wunderground v.1.15,2014-01-25 13:26:00,
2014-01-25 08:31:00,16.1,5.7,29.20,West,274,15.0,15.0,63,0.00,,,0.00,Wunderground v.1.15,2014-01-25 13:31:00,
2014-01-25 08:36:00,16.2,6.1,29.20,West,277,12.0,14.0,64,0.00,,,0.00,Wunderground v.1.15,2014-01-25 13:36:00,
2014-01-25 08:41:00,16.3,5.9,29.19,West,259,13.0,14.0,63,0.00,,,0.00,Wunderground v.1.15,2014-01-25 13:41:00,
2014-01-25 08:46:00,16.4,6.3,29.19,WSW,248,16.0,16.0,64,0.00,,,0.00,Wunderground v.1.15,2014-01-25 13:46:00,
2014-01-25 08:51:00,16.6,6.9,29.19,WSW,246,15.0,16.0,65,0.00,,,0.00,Wunderground v.1.15,2014-01-25 13:51:00,
2014-01-25 09:01:00,16.8,6.7,29.18,West,265,16.0,20.0,64,0.00,,,0.00,Wunderground v.1.15,2014-01-25 14:01:00,
2014-01-25 09:06:00,17.0,6.9,29.19,WNW,283,15.0,15.0,64,0.00,,,0.00,Wunderground v.1.15,2014-01-25 14:06:00,
2014-01-25 09:11:00,17.1,6.7,29.18,WNW,292,15.0,15.0,63,0.00,,,0.00,Wunderground v.1.15,2014-01-25 14:11:00,
2014-01-25 09:16:00,17.2,6.8,29.18,WSW,242,15.0,19.0,63,0.00,,,0.00,Wunderground v.1.15,2014-01-25 14:16:00,
2014-01-25 09:21:00,17.3,6.8,29.18,West,278,16.0,21.0,63,0.00,,,0.00,Wunderground v.1.15,2014-01-25 14:21:00,
2014-01-25 09:26:00,17.3,6.8,29.18,West,265,16.0,16.0,63,0.00,,,0.00,Wunderground v.1.15,2014-01-25 14:26:00,
2014-01-25 09:31:00,17.3,7.2,29.17,WSW,256,17.0,17.0,64,0.00,,,0.00,Wunderground v.1.15,2014-01-25 14:31:00,
2014-01-25 09:36:00,17.4,6.9,29.17,West,263,17.0,17.0,63,0.00,,,0.00,Wunderground v.1.15,2014-01-25 14:36:00,
2014-01-25 09:41:00,17.5,7.0,29.16,WSW,240,17.0,19.0,63,0.00,,,0.00,Wunderground v.1.15,2014-01-25 14:41:00,
2014-01-25 09:46:00,17.6,7.1,29.16,West,263,17.0,22.0,63,0.00,,,0.00,Wunderground v.1.15,2014-01-25 14:46:00,
2014-01-25 09:51:00,17.7,6.9,29.16,West,265,17.0,22.0,62,0.00,,,0.00,Wunderground v.1.15,2014-01-25 14:51:00,
2014-01-25 09:56:00,17.6,7.1,29.16,WSW,258,19.0,19.0,63,0.00,,,0.00,Wunderground v.1.15,2014-01-25 14:56:00,
2014-01-25 10:01:00,17.7,7.2,29.16,West,265,19.0,23.0,63,0.00,,,0.00,Wunderground v.1.15,2014-01-25 15:01:00,
2014-01-25 10:06:00,17.7,7.2,29.16,West,275,17.0,17.0,63,0.00,,,0.00,Wunderground v.1.15,2014-01-25 15:06:00,
2014-01-25 10:11:00,17.9,7.4,29.16,WSW,257,17.0,17.0,63,0.00,,,0.00,Wunderground v.1.15,2014-01-25 15:11:00,
2014-01-25 10:16:00,18.0,7.2,29.15,West,267,16.0,17.0,62,0.00,,,0.00,Wunderground v.1.15,2014-01-25 15:16:00,
2014-01-25 10:21:00,18.1,7.3,29.15,WNW,284,17.0,17.0,62,0.00,,,0.00,Wunderground v.1.15,2014-01-25 15:21:00,
2014-01-25 10:26:00,18.4,7.5,29.15,West,273,15.0,19.0,62,0.00,,,0.00,Wunderground v.1.15,2014-01-25 15:26:00,
2014-01-25 10:31:00,18.4,7.5,29.14,West,275,16.0,21.0,62,0.00,,,0.00,Wunderground v.1.15,2014-01-25 15:31:00,
2014-01-25 10:36:00,18.6,7.7,29.15,West,272,18.0,18.0,62,0.00,,,0.00,Wunderground v.1.15,2014-01-25 15:36:00,
2014-01-25 10:41:00,18.7,8.2,29.14,WNW,288,16.0,18.0,63,0.00,,,0.00,Wunderground v.1.15,2014-01-25 15:41:00,
2014-01-25 10:46:00,18.7,8.2,29.14,West,268,16.0,17.0,63,0.00,,,0.00,Wunderground v.1.15,2014-01-25 15:46:00,
2014-01-25 10:51:00,18.9,8.7,29.13,West,263,17.0,17.0,64,0.00,,,0.00,Wunderground v.1.15,2014-01-25 15:51:00,
2014-01-25 10:56:00,19.1,8.6,29.13,West,265,16.0,16.0,63,0.00,,,0.00,Wunderground v.1.15,2014-01-25 15:56:00,
2014-01-25 11:01:00,19.1,8.6,29.13,West,264,16.0,18.0,63,0.00,,,0.00,Wunderground v.1.15,2014-01-25 16:01:00,
2014-01-25 11:06:00,19.1,8.6,29.12,WSW,245,16.0,25.0,63,0.00,,,0.00,Wunderground v.1.15,2014-01-25 16:06:00,
2014-01-25 11:11:00,19.1,8.6,29.11,West,280,18.0,25.0,63,0.00,,,0.00,Wunderground v.1.15,2014-01-25 16:11:00,
2014-01-25 11:16:00,19.4,8.5,29.11,NW,315,18.0,18.0,62,0.00,,,0.00,Wunderground v.1.15,2014-01-25 16:16:00,
2014-01-25 11:21:00,19.5,8.9,29.11,West,269,15.0,18.0,63,0.00,,,0.00,Wunderground v.1.15,2014-01-25 16:21:00,
2014-01-25 11:26:00,19.6,8.7,29.11,West,259,15.0,17.0,62,0.00,,,0.00,Wunderground v.1.15,2014-01-25 16:26:00,
2014-01-25 11:31:00,19.4,9.2,29.10,West,269,17.0,23.0,64,0.00,,,0.00,Wunderground v.1.15,2014-01-25 16:31:00,
2014-01-25 11:36:00,19.4,9.2,29.10,West,265,18.0,18.0,64,0.00,,,0.00,Wunderground v.1.15,2014-01-25 16:36:00,
2014-01-25 11:41:00,19.4,8.8,29.09,West,267,15.0,18.0,63,0.00,,,0.00,Wunderground v.1.15,2014-01-25 16:41:00,
2014-01-25 11:46:00,19.5,9.3,29.09,West,277,14.0,14.0,64,0.00,,,0.00,Wunderground v.1.15,2014-01-25 16:46:00,
2014-01-25 11:51:00,19.5,9.6,29.09,West,271,16.0,19.0,65,0.00,,,0.00,Wunderground v.1.15,2014-01-25 16:51:00,
2014-01-25 11:56:00,19.5,9.3,29.08,West,270,15.0,17.0,64,0.00,,,0.00,Wunderground v.1.15,2014-01-25 16:56:00,
2014-01-25 12:01:00,19.5,9.6,29.08,WSW,258,15.0,17.0,65,0.00,,,0.00,Wunderground v.1.15,2014-01-25 17:01:00,
2014-01-25 12:06:00,19.6,9.7,29.08,WSW,255,15.0,19.0,65,0.00,,,0.00,Wunderground v.1.15,2014-01-25 17:06:00,
2014-01-25 12:11:00,19.5,9.6,29.07,WSW,252,16.0,22.0,65,0.00,,,0.00,Wunderground v.1.15,2014-01-25 17:11:00,
2014-01-25 12:16:00,19.7,10.2,29.07,West,267,16.0,16.0,66,0.00,,,0.00,Wunderground v.1.15,2014-01-25 17:16:00,
2014-01-25 12:21:00,19.7,10.2,29.07,West,280,14.0,16.0,66,0.00,,,0.00,Wunderground v.1.15,2014-01-25 17:21:00,
2014-01-25 12:26:00,19.8,9.9,29.06,West,270,13.0,13.0,65,0.00,,,0.00,Wunderground v.1.15,2014-01-25 17:26:00,
2014-01-25 12:31:00,19.8,10.3,29.06,West,271,14.0,17.0,66,0.00,,,0.00,Wunderground v.1.15,2014-01-25 17:31:00,
2014-01-25 12:36:00,19.8,10.6,29.06,West,263,15.0,15.0,67,0.00,,,0.00,Wunderground v.1.15,2014-01-25 17:36:00,
2014-01-25 12:46:00,19.8,10.9,29.06,West,268,16.0,16.0,68,0.00,,,0.00,Wunderground v.1.15,2014-01-25 17:46:00,
2014-01-25 12:51:00,19.8,10.9,29.05,WNW,284,17.0,23.0,68,0.00,,,0.00,Wunderground v.1.15,2014-01-25 17:51:00,
2014-01-25 12:56:00,19.9,11.0,29.05,WSW,245,16.0,19.0,68,0.00,,,0.00,Wunderground v.1.15,2014-01-25 17:56:00,
2014-01-25 13:01:00,20.0,11.5,29.04,WSW,247,16.0,19.0,69,0.00,,,0.00,Wunderground v.1.15,2014-01-25 18:01:00,
2014-01-25 13:06:00,20.1,11.6,29.04,West,281,16.0,16.0,69,0.00,,,0.00,Wunderground v.1.15,2014-01-25 18:06:00,
2014-01-25 13:11:00,20.2,11.7,29.04,WSW,256,13.0,16.0,69,0.00,,,0.00,Wunderground v.1.15,2014-01-25 18:11:00,
2014-01-25 13:16:00,20.2,11.7,29.03,West,267,13.0,13.0,69,0.00,,,0.00,Wunderground v.1.15,2014-01-25 18:16:00,
2014-01-25 13:21:00,20.3,12.1,29.03,WSW,252,14.0,14.0,70,0.00,,,0.00,Wunderground v.1.15,2014-01-25 18:21:00,
2014-01-25 13:26:00,20.2,12.3,29.02,WSW,257,15.0,15.0,71,0.00,,,0.00,Wunderground v.1.15,2014-01-25 18:26:00,
2014-01-25 13:31:00,20.3,12.4,29.02,WNW,286,15.0,15.0,71,0.00,,,0.00,Wunderground v.1.15,2014-01-25 18:31:00,
2014-01-25 13:36:00,20.2,12.6,29.02,WSW,239,14.0,18.0,72,0.00,,,0.00,Wunderground v.1.15,2014-01-25 18:36:00,
2014-01-25 13:41:00,20.3,12.7,29.02,WSW,256,15.0,21.0,72,0.00,,,0.00,Wunderground v.1.15,2014-01-25 18:41:00,
2014-01-25 13:46:00,20.5,12.9,29.02,WSW,243,16.0,18.0,72,0.00,,,0.00,Wunderground v.1.15,2014-01-25 18:46:00,
2014-01-25 13:51:00,20.6,12.7,29.01,WSW,257,15.0,18.0,71,0.00,,,0.00,Wunderground v.1.15,2014-01-25 18:51:00,
2014-01-25 13:56:00,20.7,12.8,29.01,West,281,15.0,15.0,71,0.00,,,0.00,Wunderground v.1.15,2014-01-25 18:56:00,
2014-01-25 14:01:00,20.8,13.2,29.00,West,275,15.0,17.0,72,0.00,,,0.00,Wunderground v.1.15,2014-01-25 19:01:00,
2014-01-25 14:06:00,20.9,13.3,29.01,WSW,255,15.0,15.0,72,0.00,,,0.00,Wunderground v.1.15,2014-01-25 19:06:00,
2014-01-25 14:11:00,21.0,13.1,29.01,West,262,14.0,15.0,71,0.00,,,0.00,Wunderground v.1.15,2014-01-25 19:11:00,
2014-01-25 14:16:00,21.1,13.2,29.00,West,264,14.0,14.0,71,0.00,,,0.00,Wunderground v.1.15,2014-01-25 19:16:00,
2014-01-25 14:21:00,21.2,13.6,29.00,West,259,14.0,19.0,72,0.00,,,0.00,Wunderground v.1.15,2014-01-25 19:21:00,
2014-01-25 14:26:00,21.2,13.6,29.00,NW,306,15.0,15.0,72,0.00,,,0.00,Wunderground v.1.15,2014-01-25 19:26:00,
2014-01-25 14:31:00,21.4,13.8,28.99,WSW,251,14.0,15.0,72,0.00,,,0.00,Wunderground v.1.15,2014-01-25 19:31:00,
2014-01-25 14:36:00,21.4,13.8,28.99,West,270,14.0,18.0,72,0.00,,,0.00,Wunderground v.1.15,2014-01-25 19:36:00,
2014-01-25 14:41:00,21.5,13.9,28.99,West,275,16.0,18.0,72,0.00,,,0.00,Wunderground v.1.15,2014-01-25 19:41:00,
2014-01-25 14:46:00,21.6,14.0,28.99,West,277,14.0,15.0,72,0.00,,,0.00,Wunderground v.1.15,2014-01-25 19:46:00,
2014-01-25 14:51:00,21.8,13.8,28.99,SW,236,12.0,15.0,71,0.00,,,0.00,Wunderground v.1.15,2014-01-25 19:51:00,
2014-01-25 14:56:00,21.9,13.9,28.99,West,276,14.0,19.0,71,0.00,,,0.00,Wunderground v.1.15,2014-01-25 19:56:00,
2014-01-25 15:01:00,22.0,14.0,28.98,WSW,243,13.0,19.0,71,0.00,,,0.00,Wunderground v.1.15,2014-01-25 20:01:00,
2014-01-25 15:06:00,22.1,14.1,28.98,WSW,238,11.0,13.0,71,0.00,,,0.00,Wunderground v.1.15,2014-01-25 20:06:00,
2014-01-25 15:11:00,22.2,14.2,28.98,WSW,246,12.0,13.0,71,0.00,,,0.00,Wunderground v.1.15,2014-01-25 20:11:00,
2014-01-25 15:16:00,22.4,14.4,28.98,West,266,12.0,12.0,71,0.00,,,0.00,Wunderground v.1.15,2014-01-25 20:16:00,
2014-01-25 15:21:00,22.5,14.5,28.98,West,271,11.0,12.0,71,0.00,,,0.00,Wunderground v.1.15,2014-01-25 20:21:00,
2014-01-25 15:26:00,22.9,14.6,28.98,WNW,282,10.0,10.0,70,0.00,,,0.00,Wunderground v.1.15,2014-01-25 20:26:00,
2014-01-25 15:31:00,22.9,14.6,28.98,West,259,12.0,13.0,70,0.00,,,0.00,Wunderground v.1.15,2014-01-25 20:31:00,
2014-01-25 15:36:00,22.9,14.6,28.97,NW,318,13.0,13.0,70,0.00,,,0.00,Wunderground v.1.15,2014-01-25 20:36:00,
2014-01-25 15:41:00,22.7,14.4,28.98,WSW,256,12.0,13.0,70,0.00,,,0.00,Wunderground v.1.15,2014-01-25 20:41:00,
2014-01-25 15:46:00,22.6,14.6,28.98,West,264,12.0,20.0,71,0.00,,,0.00,Wunderground v.1.15,2014-01-25 20:46:00,
2014-01-25 15:51:00,22.5,14.8,28.98,West,267,13.0,20.0,72,0.00,,,0.00,Wunderground v.1.15,2014-01-25 20:51:00,
2014-01-25 15:56:00,22.6,14.9,28.98,West,265,12.0,12.0,72,0.00,,,0.00,Wunderground v.1.15,2014-01-25 20:56:00,
2014-01-25 16:01:00,22.6,14.9,28.97,West,261,10.0,15.0,72,0.00,,,0.00,Wunderground v.1.15,2014-01-25 21:01:00,
2014-01-25 16:06:00,22.5,15.1,28.98,West,263,11.0,11.0,73,0.00,,,0.00,Wunderground v.1.15,2014-01-25 21:06:00,
2014-01-25 16:11:00,22.4,15.1,28.98,West,279,10.0,11.0,73,0.00,,,0.00,Wunderground v.1.15,2014-01-25 21:11:00,
2014-01-25 16:16:00,22.4,15.4,28.98,West,271,9.0,11.0,74,0.00,,,0.00,Wunderground v.1.15,2014-01-25 21:16:00,
2014-01-25 16:21:00,22.2,15.8,28.98,WSW,252,9.0,13.0,76,0.00,,,0.00,Wunderground v.1.15,2014-01-25 21:21:00,
2014-01-25 16:26:00,22.0,16.2,28.98,WSW,257,9.0,9.0,78,0.00,,,0.00,Wunderground v.1.15,2014-01-25 21:26:00,
2014-01-25 16:31:00,21.9,16.4,28.98,WNW,292,8.0,11.0,79,0.00,,,0.00,Wunderground v.1.15,2014-01-25 21:31:00,
2014-01-25 16:36:00,21.8,16.3,28.98,WSW,252,8.0,14.0,79,0.00,,,0.00,Wunderground v.1.15,2014-01-25 21:36:00,
2014-01-25 16:41:00,21.8,16.3,28.98,West,264,9.0,14.0,79,0.00,,,0.00,Wunderground v.1.15,2014-01-25 21:41:00,
2014-01-25 16:46:00,21.7,16.5,28.98,West,271,9.0,9.0,80,0.00,,,0.00,Wunderground v.1.15,2014-01-25 21:46:00,
2014-01-25 16:51:00,21.6,16.4,28.98,West,259,8.0,14.0,80,0.00,,,0.00,Wunderground v.1.15,2014-01-25 21:51:00,
2014-01-25 16:56:00,21.5,16.6,28.98,West,266,8.0,14.0,81,0.00,,,0.00,Wunderground v.1.15,2014-01-25 21:56:00,
2014-01-25 17:01:00,21.3,16.4,28.99,WSW,254,10.0,14.0,81,0.00,,,0.00,Wunderground v.1.15,2014-01-25 22:01:00,
2014-01-25 17:06:00,21.1,16.5,28.99,West,264,11.0,11.0,82,0.00,,,0.00,Wunderground v.1.15,2014-01-25 22:06:00,
2014-01-25 17:11:00,20.9,16.5,28.99,West,275,10.0,11.0,83,0.00,,,0.00,Wunderground v.1.15,2014-01-25 22:11:00,
2014-01-25 17:16:00,20.8,16.7,28.99,WNW,288,8.0,8.0,84,0.00,,,0.00,Wunderground v.1.15,2014-01-25 22:16:00,
2014-01-25 17:21:00,20.7,16.9,28.99,WSW,254,8.0,8.0,85,0.00,,,0.00,Wunderground v.1.15,2014-01-25 22:21:00,
2014-01-25 17:26:00,20.6,17.1,28.99,West,264,7.0,7.0,86,0.00,,,0.00,Wunderground v.1.15,2014-01-25 22:26:00,
2014-01-25 17:31:00,20.4,16.9,28.99,West,261,8.0,8.0,86,0.00,,,0.00,Wunderground v.1.15,2014-01-25 22:31:00,
2014-01-25 17:36:00,20.3,17.0,28.99,West,281,9.0,9.0,87,0.00,,,0.00,Wunderground v.1.15,2014-01-25 22:36:00,
2014-01-25 17:41:00,20.2,17.0,28.99,West,260,9.0,12.0,87,0.00,,,0.00,Wunderground v.1.15,2014-01-25 22:41:00,
2014-01-25 17:46:00,20.2,17.0,28.99,West,275,8.0,8.0,87,0.00,,,0.00,Wunderground v.1.15,2014-01-25 22:46:00,
2014-01-25 17:51:00,20.2,17.2,29.00,West,265,8.0,8.0,88,0.00,,,0.00,Wunderground v.1.15,2014-01-25 22:51:00,
2014-01-25 17:56:00,20.2,17.2,29.00,WSW,251,8.0,8.0,88,0.00,,,0.00,Wunderground v.1.15,2014-01-25 22:56:00,
2014-01-25 18:01:00,20.2,17.2,29.00,West,273,9.0,10.0,88,0.00,,,0.00,Wunderground v.1.15,2014-01-25 23:01:00,
2014-01-25 18:06:00,20.2,17.2,29.00,West,261,8.0,11.0,88,0.00,,,0.00,Wunderground v.1.15,2014-01-25 23:06:00,
2014-01-25 18:11:00,20.2,17.2,29.00,West,275,8.0,11.0,88,0.00,,,0.00,Wunderground v.1.15,2014-01-25 23:11:00,
2014-01-25 18:16:00,20.2,17.5,29.00,West,267,8.0,8.0,89,0.00,,,0.00,Wunderground v.1.15,2014-01-25 23:16:00,
2014-01-25 18:21:00,20.1,17.4,29.00,West,268,7.0,8.0,89,0.00,,,0.00,Wunderground v.1.15,2014-01-25 23:21:00,
2014-01-25 18:26:00,20.1,17.4,29.00,WSW,257,7.0,9.0,89,0.00,,,0.00,Wunderground v.1.15,2014-01-25 23:26:00,
2014-01-25 18:31:00,20.1,17.6,29.00,West,268,6.0,9.0,90,0.00,,,0.00,Wunderground v.1.15,2014-01-25 23:31:00,
2014-01-25 18:36:00,20.1,17.6,29.00,WNW,282,6.0,10.0,90,0.00,,,0.00,Wunderground v.1.15,2014-01-25 23:36:00,
2014-01-25 18:41:00,20.1,17.6,29.01,WNW,286,8.0,10.0,90,0.00,,,0.00,Wunderground v.1.15,2014-01-25 23:41:00,
2014-01-25 18:46:00,20.1,17.6,29.00,West,277,8.0,8.0,90,0.00,,,0.00,Wunderground v.1.15,2014-01-25 23:46:00,
2014-01-25 18:51:00,20.1,17.6,29.01,WNW,288,9.0,9.0,90,0.00,,,0.00,Wunderground v.1.15,2014-01-25 23:51:00,
2014-01-25 18:56:00,20.1,17.6,29.01,West,261,8.0,8.0,90,0.00,,,0.00,Wunderground v.1.15,2014-01-25 23:56:00,
2014-01-25 19:01:00,20.1,17.6,29.01,WSW,254,7.0,8.0,90,0.00,,,0.00,Wunderground v.1.15,2014-01-26 00:01:00,
2014-01-25 19:06:00,20.2,17.7,29.01,West,274,8.0,8.0,90,0.00,,,0.00,Wunderground v.1.15,2014-01-26 00:06:00,
2014-01-25 19:11:00,20.4,17.9,29.01,WSW,248,9.0,9.0,90,0.00,,,0.00,Wunderground v.1.15,2014-01-26 00:11:00,
2014-01-25 19:16:00,20.4,17.9,29.01,WSW,250,8.0,10.0,90,0.00,,,0.00,Wunderground v.1.15,2014-01-26 00:16:00,
2014-01-25 19:21:00,20.4,17.9,29.01,WSW,250,8.0,10.0,90,0.00,,,0.00,Wunderground v.1.15,2014-01-26 00:21:00,
2014-01-25 19:26:00,20.4,17.9,29.01,West,263,8.0,8.0,90,0.00,,,0.00,Wunderground v.1.15,2014-01-26 00:26:00,
2014-01-25 19:31:00,20.5,18.0,29.01,West,273,7.0,8.0,90,0.00,,,0.00,Wunderground v.1.15,2014-01-26 00:31:00,
2014-01-25 19:36:00,20.5,18.0,29.01,WSW,246,7.0,9.0,90,0.00,,,0.00,Wunderground v.1.15,2014-01-26 00:36:00,
2014-01-25 19:41:00,20.5,18.0,29.01,WSW,252,6.0,9.0,90,0.00,,,0.00,Wunderground v.1.15,2014-01-26 00:41:00,
2014-01-25 19:46:00,20.5,18.0,29.01,WSW,249,7.0,7.0,90,0.00,,,0.00,Wunderground v.1.15,2014-01-26 00:46:00,
2014-01-25 19:51:00,20.6,18.1,29.01,WSW,252,7.0,7.0,90,0.00,,,0.00,Wunderground v.1.15,2014-01-26 00:51:00,
2014-01-25 19:56:00,20.6,18.1,29.01,West,264,5.0,6.0,90,0.00,,,0.00,Wunderground v.1.15,2014-01-26 00:56:00,
2014-01-25 20:01:00,20.7,18.2,29.02,West,267,5.0,6.0,90,0.00,,,0.00,Wunderground v.1.15,2014-01-26 01:01:00,
2014-01-25 20:06:00,20.5,18.0,29.04,East,79,5.0,5.0,90,0.00,,,0.00,Wunderground v.1.15,2014-01-26 01:06:00,
2014-01-25 20:16:00,18.4,16.0,29.05,East,101,5.0,5.0,90,0.00,,,0.00,Wunderground v.1.15,2014-01-26 01:16:00,
2014-01-25 20:21:00,18.0,15.8,29.06,East,81,5.0,6.0,91,0.00,,,0.00,Wunderground v.1.15,2014-01-26 01:21:00,
2014-01-25 20:26:00,17.9,15.7,29.06,NNE,17,4.0,4.0,91,0.00,,,0.00,Wunderground v.1.15,2014-01-26 01:26:00,
2014-01-25 20:31:00,17.8,15.6,29.06,ENE,78,2.0,4.0,91,0.00,,,0.00,Wunderground v.1.15,2014-01-26 01:31:00,
2014-01-25 20:36:00,17.8,15.9,29.06,East,92,1.0,1.0,92,0.00,,,0.00,Wunderground v.1.15,2014-01-26 01:36:00,
2014-01-25 20:41:00,17.8,15.9,29.07,ESE,111,1.0,5.0,92,0.00,,,0.00,Wunderground v.1.15,2014-01-26 01:41:00,
2014-01-25 20:46:00,17.7,15.8,29.07,East,89,3.0,10.0,92,0.00,,,0.00,Wunderground v.1.15,2014-01-26 01:46:00,
2014-01-25 20:51:00,17.5,15.6,29.08,East,92,4.0,10.0,92,0.00,,,0.00,Wunderground v.1.15,2014-01-26 01:51:00,
2014-01-25 20:56:00,17.1,14.9,29.08,ENE,65,4.0,4.0,91,0.00,,,0.00,Wunderground v.1.15,2014-01-26 01:56:00,
2014-01-25 21:01:00,16.5,14.3,29.09,ESE,115,4.0,4.0,91,0.00,,,0.00,Wunderground v.1.15,2014-01-26 02:01:00,
2014-01-25 21:06:00,15.9,13.7,29.09,ENE,73,3.0,4.0,91,0.00,,,0.00,Wunderground v.1.15,2014-01-26 02:06:00,
2014-01-25 21:11:00,15.4,13.2,29.10,ESE,105,3.0,4.0,91,0.00,,,0.00,Wunderground v.1.15,2014-01-26 02:11:00,
2014-01-25 21:21:00,14.7,12.3,29.11,ENE,77,5.0,7.0,90,0.00,,,0.00,Wunderground v.1.15,2014-01-26 02:21:00,
2014-01-25 21:26:00,14.4,12.3,29.11,ENE,74,5.0,7.0,91,0.00,,,0.00,Wunderground v.1.15,2014-01-26 02:26:00,
2014-01-25 21:31:00,14.2,12.1,29.11,East,94,4.0,7.0,91,0.00,,,0.00,Wunderground v.1.15,2014-01-26 02:31:00,
2014-01-25 21:36:00,14.1,12.0,29.12,SE,138,3.0,3.0,91,0.00,,,0.00,Wunderground v.1.15,2014-01-26 02:36:00,
2014-01-25 21:41:00,14.1,12.0,29.12,ESE,102,2.0,4.0,91,0.00,,,0.00,Wunderground v.1.15,2014-01-26 02:41:00,
2014-01-25 21:46:00,14.0,11.9,29.12,ENE,67,2.0,4.0,91,0.00,,,0.00,Wunderground v.1.15,2014-01-26 02:46:00,
2014-01-25 21:51:00,14.0,11.9,29.13,East,85,2.0,4.0,91,0.00,,,0.00,Wunderground v.1.15,2014-01-26 02:51:00,
2014-01-25 21:56:00,13.9,11.8,29.13,East,79,2.0,4.0,91,0.00,,,0.00,Wunderground v.1.15,2014-01-26 02:56:00,
2014-01-25 22:01:00,13.8,11.7,29.14,South,169,2.0,4.0,91,0.00,,,0.00,Wunderground v.1.15,2014-01-26 03:01:00,
2014-01-25 22:06:00,13.6,11.5,29.14,ESE,112,3.0,4.0,91,0.00,,,0.00,Wunderground v.1.15,2014-01-26 03:06:00,
2014-01-25 22:11:00,13.3,10.9,29.15,ENE,57,4.0,4.0,90,0.00,,,0.00,Wunderground v.1.15,2014-01-26 03:11:00,
2014-01-25 22:16:00,13.2,11.1,29.14,NNE,15,4.0,5.0,91,0.00,,,0.00,Wunderground v.1.15,2014-01-26 03:16:00,
2014-01-25 22:21:00,12.8,10.4,29.16,NNE,22,3.0,5.0,90,0.00,,,0.00,Wunderground v.1.15,2014-01-26 03:21:00,
2014-01-25 22:26:00,12.5,10.1,29.17,WNW,298,4.0,5.0,90,0.00,,,0.00,Wunderground v.1.15,2014-01-26 03:26:00,
2014-01-25 22:31:00,12.1,9.7,29.16,SSW,198,4.0,5.0,90,0.00,,,0.00,Wunderground v.1.15,2014-01-26 03:31:00,
2014-01-25 22:36:00,12.0,9.6,29.17,ENE,61,3.0,4.0,90,0.00,,,0.00,Wunderground v.1.15,2014-01-26 03:36:00,
2014-01-25 22:41:00,12.0,9.6,29.17,NNE,28,2.0,4.0,90,0.00,,,0.00,Wunderground v.1.15,2014-01-26 03:41:00,
2014-01-25 22:46:00,11.9,9.5,29.18,East,86,2.0,5.0,90,0.00,,,0.00,Wunderground v.1.15,2014-01-26 03:46:00,
2014-01-25 22:51:00,11.7,9.1,29.18,SE,144,2.0,5.0,89,0.00,,,0.00,Wunderground v.1.15,2014-01-26 03:51:00,
2014-01-25 22:56:00,11.3,8.4,29.18,SSW,212,3.0,4.0,88,0.00,,,0.00,Wunderground v.1.15,2014-01-26 03:56:00,
2014-01-25 23:01:00,11.0,8.1,29.19,ESE,117,4.0,5.0,88,0.00,,,0.00,Wunderground v.1.15,2014-01-26 04:01:00,
2014-01-25 23:06:00,10.8,7.9,29.19,SE,142,4.0,4.0,88,0.00,,,0.00,Wunderground v.1.15,2014-01-26 04:06:00,
2014-01-25 23:11:00,10.6,7.7,29.19,NW,311,2.0,4.0,88,0.00,,,0.00,Wunderground v.1.15,2014-01-26 04:11:00,
2014-01-25 23:16:00,10.4,7.3,29.19,ENE,69,2.0,2.0,87,0.00,,,0.00,Wunderground v.1.15,2014-01-26 04:16:00,
2014-01-25 23:21:00,10.2,7.1,29.20,North,350,2.0,3.0,87,0.00,,,0.00,Wunderground v.1.15,2014-01-26 04:21:00,
2014-01-25 23:26:00,9.9,6.6,29.20,East,82,2.0,2.0,86,0.00,,,0.00,Wunderground v.1.15,2014-01-26 04:26:00,
2014-01-25 23:31:00,9.6,6.3,29.20,East,101,2.0,4.0,86,0.00,,,0.00,Wunderground v.1.15,2014-01-26 04:31:00,
2014-01-25 23:36:00,9.2,5.9,29.20,ENE,76,2.0,2.0,86,0.00,,,0.00,Wunderground v.1.15,2014-01-26 04:36:00,
2014-01-25 23:41:00,8.9,5.6,29.21,NNW,346,1.0,4.0,86,0.00,,,0.00,Wunderground v.1.15,2014-01-26 04:41:00,
2014-01-25 23:46:00,8.7,5.4,29.21,SW,221,1.0,4.0,86,0.00,,,0.00,Wunderground v.1.15,2014-01-26 04:46:00,
2014-01-25 23:51:00,8.5,5.2,29.21,NE,55,1.0,4.0,86,0.00,,,0.00,Wunderground v.1.15,2014-01-26 04:51:00,
2014-01-25 23:56:00,8.2,4.6,29.21,South,169,1.0,4.0,85,0.00,,,0.00,Wunderground v.1.15,2014-01-26 04:56:00,